Time;durP1;ratioP1;P1;durP2;ratioP2;P2;SDS_P1;SDS_P2;PMS_P1;PMS_P2;Temp;Humidity;BMP_temperature;BMP_pressure;BME280_temperature;BME280_humidity;BME280_pressure;Samples;Min_cycle;Max_cycle;Signal;HPM_P1;HPM_P2
2021/02/05 00:04:23;;;;;;;0.62;0.62;;;;;;;5.88;84.69;96535.50;299395;197;63027;-63
2021/02/05 00:09:23;;;;;;;0.70;0.70;;;;;;;5.90;85.52;96540.63;299395;216;63010;-63
2021/02/05 00:14:24;;;;;;;0.70;0.70;;;;;;;5.77;86.08;96539.28;299395;267;63009;-61
2021/02/05 00:19:29;;;;;;;0.60;0.60;;;;;;;5.89;85.92;96542.53;299395;227;63005;-62
2021/02/05 00:24:30;;;;;;;0.60;0.60;;;;;;;5.89;85.96;96530.97;299417;263;63009;-62
2021/02/05 00:29:31;;;;;;;0.70;0.70;;;;;;;5.89;85.96;96534.44;299395;202;63009;-61
2021/02/05 00:34:32;;;;;;;0.70;0.70;;;;;;;5.80;86.63;96517.22;299395;262;63009;-61
2021/02/05 00:39:33;;;;;;;0.70;0.70;;;;;;;5.69;87.15;96504.84;299395;280;63004;-62
2021/02/05 00:44:34;;;;;;;0.70;0.70;;;;;;;5.63;87.50;96517.47;299395;271;63009;-62
2021/02/05 00:49:35;;;;;;;0.60;0.60;;;;;;;5.60;87.89;96512.63;299395;251;63005;-62
2021/02/05 00:54:36;;;;;;;0.70;0.70;;;;;;;5.54;88.26;96504.84;299395;333;63008;-62
2021/02/05 00:59:37;;;;;;;0.70;0.70;;;;;;;5.56;88.67;96521.53;299395;225;63004;-61
2021/02/05 01:04:38;;;;;;;0.60;0.60;;;;;;;5.61;88.60;96530.41;299395;199;63009;-62
2021/02/05 01:09:39;;;;;;;0.70;0.70;;;;;;;5.58;88.60;96536.31;299395;219;63004;-63
2021/02/05 01:14:40;;;;;;;0.70;0.70;;;;;;;5.57;88.80;96533.91;299395;231;63009;-61
2021/02/05 01:19:41;;;;;;;0.70;0.70;;;;;;;5.63;88.85;96522.06;299395;271;63005;-63
2021/02/05 01:24:42;;;;;;;0.70;0.70;;;;;;;5.68;88.85;96509.41;299395;218;63008;-63
2021/02/05 01:29:43;;;;;;;0.70;0.70;;;;;;;5.68;88.64;96506.72;299395;223;63004;-62
2021/02/05 01:34:44;;;;;;;0.60;0.60;;;;;;;5.69;89.15;96504.84;299395;204;63009;-63
2021/02/05 01:39:45;;;;;;;0.60;0.60;;;;;;;5.69;88.59;96515.59;299395;229;63004;-62
2021/02/05 01:44:46;;;;;;;0.70;0.70;;;;;;;5.62;89.26;96520.44;299395;252;63009;-62
2021/02/05 01:49:47;;;;;;;0.70;0.70;;;;;;;5.54;89.76;96508.34;299395;210;63005;-62
2021/02/05 01:54:48;;;;;;;0.70;0.70;;;;;;;5.65;89.45;96490.28;299395;206;63019;-62
2021/02/05 01:59:50;;;;;;;0.70;0.70;;;;;;;5.63;89.13;96490.56;299395;212;63004;-62
2021/02/05 02:04:51;;;;;;;0.60;0.60;;;;;;;5.63;89.45;96495.16;299395;214;63009;-62
2021/02/05 02:09:53;;;;;;;0.70;0.70;;;;;;;5.62;89.69;96496.22;299395;291;63005;-62
2021/02/05 02:14:54;;;;;;;0.60;0.60;;;;;;;5.61;89.35;96503.47;299395;196;63017;-63
2021/02/05 02:19:56;;;;;;;0.60;0.60;;;;;;;5.65;89.32;96474.16;299395;211;63005;-62
2021/02/05 02:24:58;;;;;;;0.70;0.70;;;;;;;5.64;89.77;96475.22;299395;288;63018;-63
2021/02/05 02:30:01;;;;;;;0.70;0.70;;;;;;;5.58;89.47;96470.91;299395;292;63004;-62
2021/02/05 02:35:05;;;;;;;0.70;0.70;;;;;;;5.60;89.81;96474.16;299395;211;63009;-60
2021/02/05 02:40:09;;;;;;;0.60;0.60;;;;;;;5.53;89.88;96474.44;299395;350;63005;-62
2021/02/05 02:45:13;;;;;;;0.70;0.70;;;;;;;5.54;90.25;96465.31;299417;207;63009;-62
2021/02/05 02:50:15;;;;;;;0.70;0.70;;;;;;;5.56;89.91;96455.03;299417;219;63005;-62
2021/02/05 02:55:16;;;;;;;0.60;0.60;;;;;;;5.58;90.01;96444.00;299395;384;63009;-64
2021/02/05 03:00:18;;;;;;;0.60;0.60;;;;;;;5.61;90.03;96454.22;299395;233;63004;-62
2021/02/05 03:05:19;;;;;;;0.60;0.60;;;;;;;5.64;90.09;96462.56;299395;230;63009;-61
2021/02/05 03:10:22;;;;;;;0.70;0.70;;;;;;;5.61;89.68;96465.00;299395;234;63005;-62
2021/02/05 03:15:23;;;;;;;0.70;0.70;;;;;;;5.60;90.02;96460.69;299395;253;63009;-62
2021/02/05 03:20:24;;;;;;;0.70;0.70;;;;;;;5.63;89.91;96446.69;299395;266;63005;-62
2021/02/05 03:25:25;;;;;;;0.70;0.70;;;;;;;5.63;90.11;96452.06;299395;206;63005;-61
2021/02/05 03:30:26;;;;;;;0.70;0.70;;;;;;;5.63;90.04;96452.88;299395;312;63004;-62
2021/02/05 03:35:27;;;;;;;0.70;0.70;;;;;;;5.64;90.68;96454.50;299395;213;63018;-62
2021/02/05 03:40:28;;;;;;;0.60;0.60;;;;;;;5.64;90.52;96459.06;299395;205;63005;-61
2021/02/05 03:45:31;;;;;;;0.70;0.70;;;;;;;5.58;90.51;96465.53;299395;250;63009;-62
2021/02/05 03:50:31;;;;;;;0.60;0.60;;;;;;;5.55;89.89;96455.31;299395;204;63005;-61
2021/02/05 03:55:33;;;;;;;0.60;0.60;;;;;;;5.52;90.21;96458.56;299395;197;63009;-62
2021/02/05 04:00:34;;;;;;;0.60;0.60;;;;;;;5.49;90.43;96461.81;299395;209;63004;-62
2021/02/05 04:05:34;;;;;;;0.70;0.70;;;;;;;5.42;90.47;96456.69;299395;202;63009;-60
2021/02/05 04:10:35;;;;;;;0.70;0.70;;;;;;;5.35;90.26;96443.50;299395;211;63005;-62
2021/02/05 04:15:36;;;;;;;0.70;0.70;;;;;;;5.38;90.69;96459.13;299395;209;63009;-62
2021/02/05 04:20:37;;;;;;;0.70;0.70;;;;;;;5.39;90.66;96470.69;299395;238;63005;-61
2021/02/05 04:25:38;;;;;;;0.60;0.60;;;;;;;5.50;90.27;96466.91;299394;242;64014;-56
2021/02/05 04:30:39;;;;;;;0.60;0.60;;;;;;;5.45;90.32;96460.72;299395;214;63004;-62
2021/02/05 04:35:40;;;;;;;0.70;0.70;;;;;;;5.49;90.71;96467.19;299395;296;63009;-61
2021/02/05 04:40:42;;;;;;;0.70;0.70;;;;;;;5.53;90.69;96461.00;299395;229;63005;-62
2021/02/05 04:45:44;;;;;;;0.70;0.70;;;;;;;5.51;90.85;96470.41;299395;204;63009;-61
2021/02/05 04:50:46;;;;;;;0.70;0.70;;;;;;;5.46;90.77;96473.09;299395;224;63005;-60
2021/02/05 04:55:47;;;;;;;0.70;0.70;;;;;;;5.39;91.36;96484.94;299395;320;63009;-61
2021/02/05 05:00:48;;;;;;;0.70;0.70;;;;;;;5.42;90.89;96488.16;299395;289;63004;-61
2021/02/05 05:06:06;;;;;;;0.70;0.70;;;;;;;5.48;90.99;96487.09;299395;211;63009;-61
2021/02/05 05:11:21;;;;;;;0.70;0.70;;;;;;;5.38;90.96;96483.31;299395;202;63005;-61
2021/02/05 05:16:22;;;;;;;0.70;0.70;;;;;;;5.41;91.49;96481.19;299417;209;63009;-62
2021/02/05 05:21:26;;;;;;;0.70;0.70;;;;;;;5.46;91.18;96486.56;299395;204;63011;-61
2021/02/05 05:26:28;;;;;;;0.60;0.60;;;;;;;5.45;91.14;96476.88;299377;239;125009;-62
2021/02/05 05:31:29;;;;;;;0.60;0.60;;;;;;;5.43;91.05;96473.66;299395;244;63005;-61
2021/02/05 05:36:36;;;;;;;0.60;0.60;;;;;;;5.39;91.22;96474.19;299395;211;63009;-61
2021/02/05 05:41:39;;;;;;;0.70;0.70;;;;;;;5.41;91.17;96479.28;299395;253;63005;-61
2021/02/05 05:46:44;;;;;;;0.70;0.70;;;;;;;5.47;91.39;96490.88;299395;240;63019;-61
2021/02/05 05:51:46;;;;;;;0.70;0.70;;;;;;;5.42;91.04;96498.94;299395;196;63004;-62
2021/02/05 05:56:49;;;;;;;0.60;0.60;;;;;;;5.42;91.39;96478.22;299395;227;63009;-61
2021/02/05 06:01:51;;;;;;;0.70;0.70;;;;;;;5.41;91.22;96494.63;299395;197;63005;-62
2021/02/05 06:07:03;;;;;;;0.65;0.65;;;;;;;5.45;91.31;96479.56;299395;221;63019;-62
2021/02/05 06:12:12;;;;;;;0.60;0.60;;;;;;;5.47;91.06;96496.25;299395;263;63005;-61
2021/02/05 06:17:18;;;;;;;0.70;0.70;;;;;;;5.47;90.97;96490.88;299395;240;63009;-56
2021/02/05 06:22:22;;;;;;;0.60;0.60;;;;;;;5.43;90.96;96487.09;299395;210;63009;-61
2021/02/05 06:27:30;;;;;;;0.60;0.60;;;;;;;5.46;91.60;96494.63;299417;245;63018;-61
2021/02/05 06:32:31;;;;;;;0.60;0.60;;;;;;;5.43;91.48;96500.56;299395;305;63011;-61
2021/02/05 06:37:43;;;;;;;0.60;0.60;;;;;;;5.46;91.42;96511.59;299395;331;63008;-62
2021/02/05 06:42:47;;;;;;;0.60;0.60;;;;;;;5.50;91.48;96511.84;299395;286;63004;-61
2021/02/05 06:47:48;;;;;;;0.70;0.70;;;;;;;5.54;91.53;96526.37;299417;196;63009;-59
2021/02/05 06:52:49;;;;;;;0.70;0.70;;;;;;;5.55;91.02;96519.91;299395;214;63004;-60
2021/02/05 06:57:50;;;;;;;0.60;0.60;;;;;;;5.59;91.27;96518.28;299395;274;63009;-60
2021/02/05 07:02:51;;;;;;;0.70;0.70;;;;;;;5.61;91.34;96526.91;299395;200;63005;-61
2021/02/05 07:07:56;;;;;;;0.70;0.70;;;;;;;5.61;91.30;96522.31;299395;203;63008;-61
2021/02/05 07:13:03;;;;;;;0.70;0.70;;;;;;;5.62;91.20;96510.47;299395;260;63004;-55
2021/02/05 07:18:09;;;;;;;0.60;0.60;;;;;;;5.71;90.91;96513.44;299395;210;63009;-61
2021/02/05 07:23:14;;;;;;;0.60;0.60;;;;;;;5.77;90.65;96508.88;299395;229;63005;-63
2021/02/05 07:28:16;;;;;;;0.60;0.60;;;;;;;5.80;90.50;96500.25;299395;202;63009;-63
2021/02/05 07:33:18;;;;;;;0.60;0.60;;;;;;;5.86;89.36;96499.97;299395;208;63011;-63
2021/02/05 07:38:27;;;;;;;0.60;0.60;;;;;;;5.87;89.75;96496.22;299395;221;63009;-62
2021/02/05 07:43:28;;;;;;;0.60;0.60;;;;;;;5.90;89.67;96501.06;299395;221;63004;-62
2021/02/05 07:48:29;;;;;;;0.60;0.60;;;;;;;5.86;89.52;96516.13;299395;277;63009;-63
2021/02/05 07:53:31;;;;;;;0.60;0.60;;;;;;;5.83;89.62;96516.66;299395;228;63005;-63
2021/02/05 07:58:34;;;;;;;0.60;0.60;;;;;;;5.85;89.32;96529.88;299395;318;63009;-62
2021/02/05 08:03:40;;;;;;;0.60;0.60;;;;;;;5.87;88.99;96531.22;299395;310;63005;-62
2021/02/05 08:08:42;;;;;;;0.60;0.60;;;;;;;5.89;89.36;96531.75;299395;197;63009;-62
2021/02/05 08:13:58;;;;;;;0.60;0.60;;;;;;;5.91;89.24;96531.47;299395;239;63004;-60
2021/02/05 08:18:59;;;;;;;0.60;0.60;;;;;;;5.84;89.28;96537.12;299395;202;63009;-63
2021/02/05 08:24:25;;;;;;;0.60;0.60;;;;;;;5.84;89.46;96547.09;299395;228;63005;-61
2021/02/05 08:29:26;;;;;;;0.60;0.60;;;;;;;5.95;89.46;96549.53;299417;208;63008;-61
2021/02/05 08:34:27;;;;;;;1.55;1.55;;;;;;;6.09;87.29;96546.28;299395;220;63004;-61
2021/02/05 08:39:28;;;;;;;0.60;0.60;;;;;;;6.10;86.99;96547.87;299395;199;63009;-63
2021/02/05 08:44:29;;;;;;;0.60;0.60;;;;;;;6.01;86.92;96567.28;299395;204;63004;-62
2021/02/05 08:49:30;;;;;;;0.60;0.60;;;;;;;6.01;87.74;96559.22;299395;209;63019;-63
2021/02/05 08:54:31;;;;;;;0.70;0.70;;;;;;;5.99;87.61;96552.47;299395;220;63005;-63
2021/02/05 08:59:32;;;;;;;0.70;0.70;;;;;;;6.07;87.34;96543.03;299395;210;63008;-62
2021/02/05 09:04:34;;;;;;;0.60;0.60;;;;;;;6.08;87.27;96540.09;299395;241;63013;-62
2021/02/05 09:09:35;;;;;;;0.70;0.70;;;;;;;6.16;86.71;96546.81;299395;236;63009;-60
2021/02/05 09:14:37;;;;;;;0.68;0.68;;;;;;;6.14;86.90;96557.84;299395;242;63018;-62
2021/02/05 09:19:38;;;;;;;0.60;0.60;;;;;;;6.10;86.91;96564.06;299395;236;63009;-61
2021/02/05 09:24:39;;;;;;;0.60;0.60;;;;;;;6.00;87.98;96554.91;299395;196;63005;-61
2021/02/05 09:29:40;;;;;;;0.60;0.60;;;;;;;6.03;88.40;96559.75;299395;293;63009;-61
2021/02/05 09:34:41;;;;;;;0.70;0.70;;;;;;;6.15;87.55;96555.97;299395;258;63004;-63
2021/02/05 09:39:45;;;;;;;0.70;0.70;;;;;;;6.19;87.68;96567.81;299396;293;63023;-62
2021/02/05 09:44:47;;;;;;;0.68;0.68;;;;;;;6.19;88.07;96560.53;299418;208;63005;-61
2021/02/05 09:49:54;;;;;;;0.60;0.60;;;;;;;6.20;88.48;96561.34;299396;218;63009;-62
2021/02/05 09:54:56;;;;;;;0.70;0.70;;;;;;;6.22;88.34;96551.91;299396;204;63005;-62
2021/02/05 10:00:00;;;;;;;0.60;0.60;;;;;;;6.26;87.73;96549.44;299395;204;64014;-61
2021/02/05 10:05:02;;;;;;;0.60;0.60;;;;;;;6.36;87.67;96541.34;299418;237;63004;-61
2021/02/05 10:10:04;;;;;;;0.60;0.60;;;;;;;6.61;86.50;96533.16;299396;270;63009;-61
2021/02/05 10:15:06;;;;;;;0.60;0.60;;;;;;;6.79;85.75;96539.03;299396;206;63005;-61
2021/02/05 10:20:09;;;;;;;0.60;0.60;;;;;;;6.86;86.18;96539.53;299397;219;63009;-62
2021/02/05 10:25:14;;;;;;;0.70;0.70;;;;;;;7.02;85.78;96532.97;299397;287;63005;-62
2021/02/05 10:30:19;;;;;;;0.60;0.60;;;;;;;7.24;85.43;96528.00;299396;275;63020;-61
2021/02/05 10:35:23;;;;;;;0.60;0.60;;;;;;;7.44;85.84;96535.13;299396;216;63004;-60
2021/02/05 10:40:24;;;;;;;0.60;0.60;;;;;;;7.57;84.37;96525.59;299396;275;63009;-60
2021/02/05 10:45:28;;;;;;;0.60;0.60;;;;;;;7.65;83.67;96527.66;299396;197;63005;-63
2021/02/05 10:50:31;;;;;;;;;;;;;;;7.58;83.02;96524.50;299996;983;6004;-62
2021/02/05 10:55:35;;;;;;;0.60;0.60;;;;;;;7.57;83.11;96506.69;299401;218;63009;-62
2021/02/05 11:00:36;;;;;;;0.60;0.60;;;;;;;7.63;82.82;96509.03;299418;314;63005;-60
2021/02/05 11:05:38;;;;;;;0.60;0.60;;;;;;;7.69;83.40;96520.59;299396;208;63008;-61
2021/02/05 11:10:38;;;;;;;0.60;0.60;;;;;;;7.82;82.80;96519.97;299396;288;63004;-62
2021/02/05 11:15:40;;;;;;;0.60;0.60;;;;;;;7.98;82.61;96501.69;299397;282;63009;-62
2021/02/05 11:20:43;;;;;;;0.60;0.60;;;;;;;8.20;82.34;96490.41;299397;302;63004;-63
2021/02/05 11:25:47;;;;;;;0.60;0.60;;;;;;;8.35;81.64;96493.75;299395;233;63009;-62
2021/02/05 11:30:48;;;;;;;0.60;0.60;;;;;;;8.48;80.89;96473.34;299417;219;63005;-58
2021/02/05 11:35:49;;;;;;;0.60;0.60;;;;;;;8.58;80.17;96478.63;299395;235;63008;-60
2021/02/05 11:40:51;;;;;;;0.60;0.60;;;;;;;8.54;79.88;96469.50;299395;235;63004;-60
2021/02/05 11:45:52;;;;;;;0.60;0.60;;;;;;;8.62;79.58;96458.03;299395;318;63009;-60
2021/02/05 11:50:53;;;;;;;0.60;0.60;;;;;;;8.66;79.84;96464.44;299395;205;63008;-61
2021/02/05 11:55:54;;;;;;;0.60;0.60;;;;;;;8.64;80.04;96461.25;299395;336;63009;-61
2021/02/05 12:00:55;;;;;;;0.60;0.60;;;;;;;8.50;81.08;96454.94;299395;222;63005;-60
2021/02/05 12:05:56;;;;;;;0.60;0.60;;;;;;;8.46;81.05;96444.97;299395;215;63008;-61
2021/02/05 12:10:57;;;;;;;0.60;0.60;;;;;;;8.53;81.92;96440.03;299395;218;63004;-60
2021/02/05 12:15:58;;;;;;;0.60;0.60;;;;;;;8.64;80.88;96430.69;299395;211;63009;-62
2021/02/05 12:20:58;;;;;;;0.60;0.60;;;;;;;8.83;80.74;96433.41;299395;305;63009;-62
2021/02/05 12:26:01;;;;;;;0.60;0.60;;;;;;;9.00;80.02;96431.78;299395;265;63009;-60
2021/02/05 12:31:02;;;;;;;0.60;0.60;;;;;;;9.05;79.28;96444.41;299395;241;63015;-61
2021/02/05 12:36:04;;;;;;;0.60;0.60;;;;;;;8.95;79.92;96417.53;299395;213;63009;-60
2021/02/05 12:41:07;;;;;;;0.60;0.60;;;;;;;8.96;79.91;96416.44;299395;209;63004;-60
2021/02/05 12:46:09;;;;;;;0.60;0.60;;;;;;;9.06;79.30;96430.59;299395;227;63009;-60
2021/02/05 12:51:10;;;;;;;0.60;0.60;;;;;;;9.00;80.00;96431.00;299395;339;63005;-61
2021/02/05 12:56:11;;;;;;;0.60;0.60;;;;;;;8.98;80.23;96423.16;299395;213;63009;-60
2021/02/05 13:01:12;;;;;;;0.60;0.60;;;;;;;8.86;81.21;96425.50;299395;256;63005;-61
2021/02/05 13:06:13;;;;;;;0.60;0.60;;;;;;;8.89;80.60;96440.34;299395;315;63009;-60
2021/02/05 13:11:14;;;;;;;0.60;0.60;;;;;;;8.85;80.84;96447.44;299395;234;63004;-61
2021/02/05 13:16:15;;;;;;;0.60;0.60;;;;;;;8.84;80.96;96449.34;299395;207;63009;-60
2021/02/05 13:21:20;;;;;;;0.60;0.60;;;;;;;8.86;81.26;96446.34;299395;238;63005;-62
2021/02/05 13:26:21;;;;;;;0.60;0.60;;;;;;;8.86;80.70;96446.34;299395;374;63009;-58
2021/02/05 13:31:22;;;;;;;0.60;0.60;;;;;;;8.95;81.28;96434.56;299395;281;63005;-60
2021/02/05 13:36:23;;;;;;;0.60;0.60;;;;;;;9.07;80.04;96431.41;299395;205;63009;-59
2021/02/05 13:41:24;;;;;;;0.60;0.60;;;;;;;9.05;81.10;96420.06;299395;246;63004;-60
2021/02/05 13:46:26;;;;;;;0.60;0.60;;;;;;;9.18;79.91;96434.75;299395;207;63009;-60
2021/02/05 13:51:27;;;;;;;0.60;0.60;;;;;;;9.07;79.96;96436.81;299395;198;63005;-59
2021/02/05 13:56:31;;;;;;;0.60;0.60;;;;;;;8.93;80.60;96454.91;299395;204;63009;-60
2021/02/05 14:01:32;;;;;;;0.60;0.60;;;;;;;8.77;81.61;96458.91;299417;199;63005;-60
2021/02/05 14:06:33;;;;;;;0.60;0.60;;;;;;;8.67;81.61;96466.06;299373;198;63009;-62
2021/02/05 14:11:34;;;;;;;0.60;0.60;;;;;;;8.48;82.67;96462.53;299395;255;63004;-62
2021/02/05 14:16:35;;;;;;;0.60;0.60;;;;;;;8.42;82.60;96458.28;299395;206;63009;-59
2021/02/05 14:21:37;;;;;;;0.60;0.60;;;;;;;8.37;82.41;96444.81;299395;210;63005;-61
2021/02/05 14:26:38;;;;;;;0.60;0.60;;;;;;;8.31;83.30;96457.59;299395;350;63008;-60
2021/02/05 14:31:39;;;;;;;0.60;0.60;;;;;;;8.30;83.00;96455.97;299395;197;63009;-58
2021/02/05 14:36:42;;;;;;;0.60;0.60;;;;;;;8.34;83.04;96461.59;299395;214;63009;-58
2021/02/05 14:41:43;;;;;;;0.60;0.60;;;;;;;8.35;82.90;96447.00;299395;347;63004;-58
2021/02/05 14:46:44;;;;;;;0.60;0.60;;;;;;;8.30;83.55;96455.16;299395;222;63020;-59
2021/02/05 14:51:45;;;;;;;0.60;0.60;;;;;;;8.30;83.24;96452.47;299394;251;64005;-59
2021/02/05 14:56:47;;;;;;;0.60;0.60;;;;;;;8.30;83.39;96449.75;299395;231;63008;-60
2021/02/05 15:01:48;;;;;;;0.60;0.60;;;;;;;8.35;82.89;96457.81;299395;286;63004;-61
2021/02/05 15:06:50;;;;;;;0.60;0.60;;;;;;;8.27;83.39;96461.16;299395;214;63009;-59
2021/02/05 15:11:51;;;;;;;0.60;0.60;;;;;;;8.29;82.78;96459.75;299395;205;63004;-59
2021/02/05 15:16:52;;;;;;;0.60;0.60;;;;;;;8.17;83.56;96456.66;299395;224;63020;-59
2021/02/05 15:21:53;;;;;;;0.60;0.60;;;;;;;8.11;83.38;96452.41;299395;210;63005;-60
2021/02/05 15:26:54;;;;;;;0.60;0.60;;;;;;;8.02;83.91;96470.31;299395;202;63008;-59
2021/02/05 15:31:56;;;;;;;0.60;0.60;;;;;;;7.96;83.80;96461.50;299395;206;63004;-60
2021/02/05 15:36:57;;;;;;;0.60;0.60;;;;;;;7.92;84.24;96449.66;299395;332;63009;-59
2021/02/05 15:42:00;;;;;;;0.60;0.60;;;;;;;7.89;84.19;96450.22;299395;207;63005;-60
2021/02/05 15:47:01;;;;;;;0.60;0.60;;;;;;;7.89;84.49;96455.63;299395;257;63009;-59
2021/02/05 15:52:02;;;;;;;0.60;0.60;;;;;;;7.85;84.21;96454.56;299395;199;63005;-60
2021/02/05 15:57:04;;;;;;;0.60;0.60;;;;;;;7.80;84.47;96465.41;299395;230;63009;-60
2021/02/05 16:02:05;;;;;;;0.60;0.60;;;;;;;7.83;84.28;96472.97;299395;196;63004;-59
2021/02/05 16:07:06;;;;;;;0.60;0.60;;;;;;;7.76;84.86;96474.38;299395;220;63009;-60
2021/02/05 16:12:08;;;;;;;0.60;0.60;;;;;;;7.70;84.56;96474.41;299395;214;63005;-60
2021/02/05 16:17:09;;;;;;;0.60;0.60;;;;;;;7.71;85.37;96480.63;299395;198;63009;-60
2021/02/05 16:22:14;;;;;;;0.60;0.60;;;;;;;7.82;84.24;96487.56;299395;222;63011;-60
2021/02/05 16:27:16;;;;;;;0.60;0.60;;;;;;;7.87;83.66;96490.22;299395;224;63009;-60
2021/02/05 16:32:21;;;;;;;0.60;0.60;;;;;;;7.80;84.09;96500.53;299395;231;63004;-60
2021/02/05 16:37:22;;;;;;;0.60;0.60;;;;;;;7.82;84.78;96503.75;299439;216;63009;-59
2021/02/05 16:42:26;;;;;;;1.83;1.20;;;;;;;7.70;84.39;96506.81;299395;219;63005;-60
2021/02/05 16:47:27;;;;;;;0.60;0.60;;;;;;;7.77;83.73;96495.69;299417;208;63009;-58
2021/02/05 16:52:28;;;;;;;0.60;0.60;;;;;;;7.46;85.29;96497.06;299395;289;63005;-60
2021/02/05 16:57:29;;;;;;;0.52;0.52;;;;;;;7.55;85.24;96503.47;299395;295;63019;-59
2021/02/05 17:02:30;;;;;;;0.60;0.60;;;;;;;7.40;84.98;96486.28;299395;209;63004;-58
2021/02/05 17:07:31;;;;;;;0.60;0.60;;;;;;;7.31;86.36;96501.47;299395;202;63009;-59
2021/02/05 17:12:34;;;;;;;0.60;0.60;;;;;;;7.43;85.80;96505.72;299395;222;63005;-58
2021/02/05 17:17:35;;;;;;;0.60;0.60;;;;;;;7.40;86.42;96493.59;299395;242;63009;-58
2021/02/05 17:22:37;;;;;;;0.60;0.60;;;;;;;7.38;86.75;96496.56;299395;227;63004;-60
2021/02/05 17:27:38;;;;;;;0.60;0.60;;;;;;;7.49;85.91;96494.59;299395;205;63009;-60
2021/02/05 17:32:40;;;;;;;0.55;0.55;;;;;;;7.55;85.37;96492.66;299395;233;63004;-60
2021/02/05 17:37:42;;;;;;;0.60;0.60;;;;;;;7.37;85.90;96486.84;299395;298;63009;-59
2021/02/05 17:42:43;;;;;;;0.60;0.60;;;;;;;7.43;85.63;96474.13;299395;236;63020;-60
2021/02/05 17:47:44;;;;;;;0.60;0.60;;;;;;;7.34;86.48;96478.50;299395;207;63008;-60
2021/02/05 17:52:45;;;;;;;0.60;0.60;;;;;;;7.22;86.33;96467.28;299395;221;63004;-60
2021/02/05 17:57:47;;;;;;;0.60;0.60;;;;;;;7.16;87.29;96469.22;299394;197;64009;-60
2021/02/05 18:02:50;;;;;;;0.60;0.60;;;;;;;7.26;86.88;96479.13;299395;227;63004;-59
2021/02/05 18:07:54;;;;;;;0.60;0.60;;;;;;;7.27;86.61;96470.75;299417;265;63009;-60
2021/02/05 18:12:55;;;;;;;0.60;0.60;;;;;;;7.15;87.05;96467.59;299373;250;63005;-60
2021/02/05 18:17:55;;;;;;;0.60;0.60;;;;;;;7.11;87.58;96481.94;299395;211;63008;-60
2021/02/05 18:22:56;;;;;;;0.60;0.60;;;;;;;7.08;87.64;96472.50;299395;231;63004;-60
2021/02/05 18:27:57;;;;;;;0.60;0.60;;;;;;;6.96;88.38;96472.03;299395;229;63009;-60
2021/02/05 18:32:58;;;;;;;0.60;0.60;;;;;;;6.91;88.73;96480.19;299395;199;63004;-62
2021/02/05 18:37:59;;;;;;;0.60;0.60;;;;;;;6.87;89.18;96477.25;299393;202;64013;-70
2021/02/05 18:43:00;;;;;;;0.60;0.60;;;;;;;6.85;89.44;96475.91;299395;271;63000;-70
2021/02/05 18:48:01;;;;;;;0.50;0.50;;;;;;;6.85;89.40;96454.34;299395;256;63005;-69
2021/02/05 18:53:03;;;;;;;0.60;0.60;;;;;;;6.85;89.21;96467.81;299394;203;63989;-66
2021/02/05 18:58:04;;;;;;;0.60;0.60;;;;;;;6.80;89.50;96454.34;299395;223;63005;-68
2021/02/05 19:03:05;;;;;;;0.60;0.60;;;;;;;6.74;89.83;96442.78;299395;227;63001;-59
2021/02/05 19:14:03;;;;;;;0.70;0.70;;;;;;;6.66;90.12;96438.78;299395;254;63000;-68
2021/02/05 19:19:04;;;;;;;0.60;0.60;;;;;;;6.65;90.49;96431.78;299395;199;63005;-63
2021/02/05 19:24:06;;;;;;;0.50;0.50;;;;;;;6.62;90.67;96426.94;299395;224;63000;-65
2021/02/05 19:29:08;;;;;;;0.60;0.60;;;;;;;6.57;90.91;96413.53;299395;196;63005;-63
2021/02/05 19:34:13;;;;;;;0.60;0.60;;;;;;;6.59;90.90;96411.31;299395;215;63001;-64
2021/02/05 19:39:15;;;;;;;0.60;0.60;;;;;;;6.61;91.34;96413.75;299417;235;63004;-67
2021/02/05 19:44:17;;;;;;;2.05;1.95;;;;;;;6.57;91.38;96410.84;299395;199;63000;-66
2021/02/05 19:49:18;;;;;;;0.60;0.60;;;;;;;6.51;91.56;96403.84;299395;254;63005;-60
2021/02/05 19:54:21;;;;;;;0.60;0.60;;;;;;;6.51;91.69;96403.84;299395;259;63000;-66
2021/02/05 19:59:23;;;;;;;0.50;0.50;;;;;;;6.58;91.97;96409.75;299395;219;63004;-63
2021/02/05 20:04:24;;;;;;;0.60;0.60;;;;;;;6.56;91.51;96417.31;299395;226;63000;-63
2021/02/05 20:09:26;;;;;;;0.60;0.60;;;;;;;6.49;91.65;96395.22;299395;202;63004;-65
2021/02/05 20:14:27;;;;;;;0.60;0.60;;;;;;;6.46;91.64;96390.41;299395;276;63000;-57
2021/02/05 20:19:28;;;;;;;0.60;0.60;;;;;;;6.45;92.00;96387.97;299395;234;63005;-64
2021/02/05 20:24:29;;;;;;;0.60;0.60;;;;;;;6.45;92.00;96387.97;299395;240;63000;-65
2021/02/05 20:29:30;;;;;;;0.60;0.60;;;;;;;6.47;92.11;96397.41;299395;253;63005;-64
2021/02/05 20:34:31;;;;;;;0.60;0.60;;;;;;;6.48;91.90;96396.31;299395;232;63001;-65
2021/02/05 20:39:34;;;;;;;0.60;0.60;;;;;;;6.46;91.90;96400.38;299395;242;63004;-65
2021/02/05 20:44:35;;;;;;;0.60;0.60;;;;;;;6.46;91.81;96414.66;299395;298;63000;-64
2021/02/05 20:49:40;;;;;;;0.60;0.60;;;;;;;6.43;91.99;96417.91;299417;288;63005;-65
2021/02/05 20:54:45;;;;;;;0.60;0.60;;;;;;;6.45;92.04;96421.13;299395;227;63000;-64
2021/02/05 20:59:46;;;;;;;0.60;0.60;;;;;;;6.34;92.34;96406.09;299417;212;63004;-63
2021/02/05 21:04:47;;;;;;;0.60;0.60;;;;;;;6.33;92.34;96412.56;299395;253;63000;-57
2021/02/05 21:09:48;;;;;;;0.60;0.60;;;;;;;6.29;92.52;96416.88;299395;201;63005;-63
2021/02/05 21:14:49;;;;;;;0.60;0.60;;;;;;;6.28;92.76;96404.50;299395;265;63000;-61
2021/02/05 21:19:50;;;;;;;0.60;0.60;;;;;;;6.26;93.02;96390.50;299395;210;63005;-60
2021/02/05 21:24:52;;;;;;;0.60;0.60;;;;;;;6.31;92.63;96387.78;299395;206;63001;-60
2021/02/05 21:29:53;;;;;;;0.60;0.60;;;;;;;6.32;92.61;96389.38;299395;222;63019;-60
2021/02/05 21:34:54;;;;;;;0.60;0.60;;;;;;;6.31;92.89;96393.16;299395;218;63000;-59
2021/02/05 21:39:55;;;;;;;0.60;0.60;;;;;;;6.41;92.63;96393.13;299395;196;63004;-59
2021/02/05 21:44:57;;;;;;;0.60;0.60;;;;;;;6.41;92.54;96406.59;299395;222;63000;-60
2021/02/05 21:49:58;;;;;;;0.60;0.60;;;;;;;6.35;92.69;96405.81;299395;222;63005;-60
2021/02/05 21:55:00;;;;;;;0.60;0.60;;;;;;;6.51;92.39;96393.06;299395;207;63000;-62
2021/02/05 22:00:05;;;;;;;0.60;0.60;;;;;;;6.40;91.61;96386.13;299395;234;63004;-62
2021/02/05 22:05:10;;;;;;;0.60;0.60;;;;;;;6.34;91.90;96371.06;299395;224;63000;-61
2021/02/05 22:10:14;;;;;;;0.60;0.60;;;;;;;6.26;92.30;96358.97;299396;260;63020;-59
2021/02/05 22:15:15;;;;;;;0.60;0.60;;;;;;;6.26;92.70;96363.56;299396;233;63000;-60
2021/02/05 22:20:16;;;;;;;0.60;0.60;;;;;;;6.36;92.52;96358.91;299396;210;63005;-58
2021/02/05 22:25:17;;;;;;;0.60;0.60;;;;;;;6.25;92.51;96351.16;299396;236;63001;-60
2021/02/05 22:30:20;;;;;;;0.60;0.60;;;;;;;6.20;92.59;96348.53;299396;275;63004;-60
2021/02/05 22:35:22;;;;;;;0.60;0.60;;;;;;;6.22;93.05;96346.34;299396;220;63000;-62
2021/02/05 22:40:23;;;;;;;0.60;0.60;;;;;;;6.20;92.89;96340.44;299396;224;63005;-60
2021/02/05 22:45:24;;;;;;;0.60;0.60;;;;;;;6.19;93.12;96346.91;299396;213;63000;-61
2021/02/05 22:50:25;;;;;;;0.60;0.60;;;;;;;6.20;92.98;96345.84;299396;264;63020;-60
2021/02/05 22:55:26;;;;;;;0.60;0.60;;;;;;;6.20;93.32;96348.53;299397;226;63001;-60
2021/02/05 23:00:28;;;;;;;0.60;0.60;;;;;;;6.17;93.00;96335.59;299397;206;63004;-61
2021/02/05 23:05:29;;;;;;;0.60;0.60;;;;;;;6.14;93.34;96330.78;299396;214;63000;-60
2021/02/05 23:10:30;;;;;;;0.60;0.60;;;;;;;6.11;93.15;96328.63;299396;220;63005;-59
2021/02/05 23:15:31;;;;;;;0.60;0.60;;;;;;;6.08;93.37;96313.03;299396;220;63000;-60
2021/02/05 23:20:32;;;;;;;0.60;0.60;;;;;;;6.05;93.17;96307.13;299396;236;63005;-61
2021/02/05 23:25:33;;;;;;;0.60;0.60;;;;;;;6.01;93.27;96302.56;299396;221;63001;-62
2021/02/05 23:30:34;;;;;;;0.60;0.60;;;;;;;5.94;93.17;96294.78;299396;231;63004;-61
2021/02/05 23:35:35;;;;;;;0.60;0.60;;;;;;;5.95;93.54;96282.91;299396;286;63000;-61
2021/02/05 23:40:36;;;;;;;0.60;0.60;;;;;;;5.93;93.49;96274.31;299396;247;63005;-61
2021/02/05 23:45:37;;;;;;;0.60;0.60;;;;;;;5.97;93.39;96267.28;299396;237;63004;-61
2021/02/05 23:50:38;;;;;;;0.60;0.60;;;;;;;5.99;93.39;96262.44;299397;205;63004;-62
2021/02/05 23:55:39;;;;;;;0.60;0.60;;;;;;;5.97;93.39;96253.81;299396;210;63005;-62
